Boars Hill, United Kingdom
Current Conditions -  °F | °C
As of 9:50 AM on Saturday 25 Oct 2014 (Local Time) from EGTK Reporting Station
Broken Clouds Broken Clouds  
Wind Chill: 50°   Ceiling: 4300
Heat Index: 50°   Visibility: 6mi
Dew Point: 50°   Wind: 6mph
Humidity: 100%   Direction: 220°SW
Pressure: 30.03"   Gusts: NA
Location:  51.72°N, 1.29°W
Report Text: EGTK 250850Z 22005KT 9999 BKN043 10/10 Q1017
Loading
Personal Weather Stations






























Interactive Weather Map
Tropical Storm Tracking
New forecast layout! Learn more

10-Day Weather Forecast

Advertisements
Track Severe Weather on mobile